sensor_id;sensor_type;location;lat;lon;timestamp;pressure;altitude;pressure_sealevel;temperature;humidity
79309;BME280;68767;53.078;7.386;2023-04-05T00:02:22;102729.34;;;-0.08;79.99
79309;BME280;68767;53.078;7.386;2023-04-05T00:04:50;102725.22;;;-0.17;79.16
79309;BME280;68767;53.078;7.386;2023-04-05T00:07:23;102725.63;;;-0.20;80.01
79309;BME280;68767;53.078;7.386;2023-04-05T00:09:50;102723.19;;;-0.22;80.44
79309;BME280;68767;53.078;7.386;2023-04-05T00:12:16;102728.03;;;-0.25;80.35
79309;BME280;68767;53.078;7.386;2023-04-05T00:14:44;102718.28;;;-0.25;80.57
79309;BME280;68767;53.078;7.386;2023-04-05T00:17:11;102715.66;;;-0.32;80.61
79309;BME280;68767;53.078;7.386;2023-04-05T00:19:38;102703.06;;;-0.30;80.71
79309;BME280;68767;53.078;7.386;2023-04-05T00:22:05;102709.56;;;-0.32;80.84
79309;BME280;68767;53.078;7.386;2023-04-05T00:24:37;102718.88;;;-0.36;81.43
79309;BME280;68767;53.078;7.386;2023-04-05T00:27:09;102716.25;;;-0.30;81.49
79309;BME280;68767;53.078;7.386;2023-04-05T00:29:35;102718.91;;;-0.30;80.77
79309;BME280;68767;53.078;7.386;2023-04-05T00:32:02;102719.09;;;-0.31;81.37
79309;BME280;68767;53.078;7.386;2023-04-05T00:34:30;102718.06;;;-0.30;82.07
79309;BME280;68767;53.078;7.386;2023-04-05T00:36:58;102709.72;;;-0.34;81.81
79309;BME280;68767;53.078;7.386;2023-04-05T00:39:25;102713.38;;;-0.41;81.49
79309;BME280;68767;53.078;7.386;2023-04-05T00:41:53;102707.84;;;-0.46;81.30
79309;BME280;68767;53.078;7.386;2023-04-05T00:44:19;102712.16;;;-0.39;81.35
79309;BME280;68767;53.078;7.386;2023-04-05T00:46:46;102709.53;;;-0.39;82.84
79309;BME280;68767;53.078;7.386;2023-04-05T00:49:13;102703.19;;;-0.44;82.56
79309;BME280;68767;53.078;7.386;2023-04-05T00:51:40;102705.63;;;-0.43;81.66
79309;BME280;68767;53.078;7.386;2023-04-05T00:54:08;102710.91;;;-0.43;81.68
79309;BME280;68767;53.078;7.386;2023-04-05T00:56:34;102701.16;;;-0.49;81.58
79309;BME280;68767;53.078;7.386;2023-04-05T00:59:02;102694.22;;;-0.50;81.35
79309;BME280;68767;53.078;7.386;2023-04-05T01:01:31;102696.25;;;-0.52;81.67
79309;BME280;68767;53.078;7.386;2023-04-05T01:04:00;102695.66;;;-0.54;81.76
79309;BME280;68767;53.078;7.386;2023-04-05T01:11:58;102694.19;;;-0.63;82.45
79309;BME280;68767;53.078;7.386;2023-04-05T01:14:26;102694.75;;;-0.68;82.71
79309;BME280;68767;53.078;7.386;2023-04-05T01:16:53;102693.75;;;-0.67;82.96
79309;BME280;68767;53.078;7.386;2023-04-05T01:19:28;102692.94;;;-0.67;82.93
79309;BME280;68767;53.078;7.386;2023-04-05T01:30:20;102690.91;;;-0.72;82.94
79309;BME280;68767;53.078;7.386;2023-04-05T01:35:52;102681.50;;;-0.81;83.31
79309;BME280;68767;53.078;7.386;2023-04-05T01:38:23;102687.75;;;-0.89;83.46
79309;BME280;68767;53.078;7.386;2023-04-05T01:40:53;102687.31;;;-0.92;84.00
79309;BME280;68767;53.078;7.386;2023-04-05T01:43:20;102688.53;;;-0.95;83.21
79309;BME280;68767;53.078;7.386;2023-04-05T01:45:47;102688.13;;;-0.92;83.05
79309;BME280;68767;53.078;7.386;2023-04-05T01:48:14;102677.63;;;-0.85;83.75
79309;BME280;68767;53.078;7.386;2023-04-05T01:50:41;102681.28;;;-0.86;83.30
79309;BME280;68767;53.078;7.386;2023-04-05T01:53:09;102683.06;;;-0.93;84.23
79309;BME280;68767;53.078;7.386;2023-04-05T01:55:35;102675.16;;;-0.93;84.38
79309;BME280;68767;53.078;7.386;2023-04-05T01:58:02;102676.56;;;-0.97;84.60
79309;BME280;68767;53.078;7.386;2023-04-05T02:00:29;102670.03;;;-1.01;84.13
79309;BME280;68767;53.078;7.386;2023-04-05T02:02:56;102663.72;;;-1.07;84.40
79309;BME280;68767;53.078;7.386;2023-04-05T02:05:23;102674.88;;;-1.05;84.53
79309;BME280;68767;53.078;7.386;2023-04-05T02:07:50;102660.44;;;-1.09;84.26
79309;BME280;68767;53.078;7.386;2023-04-05T02:10:17;102667.78;;;-1.04;84.54
79309;BME280;68767;53.078;7.386;2023-04-05T02:12:44;102662.91;;;-1.07;84.08
79309;BME280;68767;53.078;7.386;2023-04-05T02:15:11;102662.72;;;-1.06;84.61
79309;BME280;68767;53.078;7.386;2023-04-05T02:17:37;102663.53;;;-1.05;84.79
79309;BME280;68767;53.078;7.386;2023-04-05T02:20:06;102662.94;;;-1.01;85.16
79309;BME280;68767;53.078;7.386;2023-04-05T02:22:34;102656.41;;;-1.05;85.26
79309;BME280;68767;53.078;7.386;2023-04-05T02:25:02;102652.56;;;-1.02;85.19
79309;BME280;68767;53.078;7.386;2023-04-05T02:27:30;102660.28;;;-1.01;85.37
79309;BME280;68767;53.078;7.386;2023-04-05T02:29:57;102657.03;;;-1.03;84.78
79309;BME280;68767;53.078;7.386;2023-04-05T02:32:24;102658.25;;;-1.05;84.75
79309;BME280;68767;53.078;7.386;2023-04-05T02:34:51;102663.56;;;-0.99;85.15
79309;BME280;68767;53.078;7.386;2023-04-05T02:37:18;102658.44;;;-1.07;84.91
79309;BME280;68767;53.078;7.386;2023-04-05T02:39:46;102657.81;;;-1.09;84.91
79309;BME280;68767;53.078;7.386;2023-04-05T02:42:12;102650.72;;;-1.08;85.72
79309;BME280;68767;53.078;7.386;2023-04-05T02:44:39;102652.94;;;-1.12;85.68
79309;BME280;68767;53.078;7.386;2023-04-05T02:47:06;102658.63;;;-1.08;85.84
79309;BME280;68767;53.078;7.386;2023-04-05T02:49:33;102655.00;;;-1.07;85.23
79309;BME280;68767;53.078;7.386;2023-04-05T02:51:59;102650.34;;;-1.05;85.04
79309;BME280;68767;53.078;7.386;2023-04-05T02:54:26;102654.34;;;-1.09;85.48
79309;BME280;68767;53.078;7.386;2023-04-05T02:56:53;102655.16;;;-1.09;85.58
79309;BME280;68767;53.078;7.386;2023-04-05T02:59:20;102642.38;;;-1.12;85.30
79309;BME280;68767;53.078;7.386;2023-04-05T03:01:47;102649.09;;;-1.09;85.74
79309;BME280;68767;53.078;7.386;2023-04-05T03:04:13;102650.84;;;-1.17;85.68
79309;BME280;68767;53.078;7.386;2023-04-05T03:06:42;102648.06;;;-1.15;85.49
79309;BME280;68767;53.078;7.386;2023-04-05T03:09:11;102654.50;;;-1.18;85.51
79309;BME280;68767;53.078;7.386;2023-04-05T03:11:39;102645.78;;;-1.18;85.62
79309;BME280;68767;53.078;7.386;2023-04-05T03:14:06;102645.78;;;-1.18;85.76
79309;BME280;68767;53.078;7.386;2023-04-05T03:16:33;102641.72;;;-1.21;85.59
79309;BME280;68767;53.078;7.386;2023-04-05T03:19:00;102641.69;;;-1.27;85.73
79309;BME280;68767;53.078;7.386;2023-04-05T03:21:27;102633.19;;;-1.23;86.25
79309;BME280;68767;53.078;7.386;2023-04-05T03:23:55;102633.19;;;-1.23;86.06
79309;BME280;68767;53.078;7.386;2023-04-05T03:26:22;102636.59;;;-1.29;86.64
79309;BME280;68767;53.078;7.386;2023-04-05T03:28:49;102637.81;;;-1.25;86.59
79309;BME280;68767;53.078;7.386;2023-04-05T03:31:16;102634.72;;;-1.35;86.48
79309;BME280;68767;53.078;7.386;2023-04-05T03:33:45;102631.91;;;-1.33;86.20
79309;BME280;68767;53.078;7.386;2023-04-05T03:36:12;102633.09;;;-1.36;86.16
79309;BME280;68767;53.078;7.386;2023-04-05T03:38:43;102630.06;;;-1.33;86.35
79309;BME280;68767;53.078;7.386;2023-04-05T03:41:11;102628.22;;;-1.39;85.99
79309;BME280;68767;53.078;7.386;2023-04-05T03:43:37;102632.84;;;-1.41;85.80
79309;BME280;68767;53.078;7.386;2023-04-05T03:46:04;102633.31;;;-1.37;86.18
79309;BME280;68767;53.078;7.386;2023-04-05T03:48:31;102627.97;;;-1.44;86.79
79309;BME280;68767;53.078;7.386;2023-04-05T03:50:58;102629.75;;;-1.51;86.35
79309;BME280;68767;53.078;7.386;2023-04-05T03:53:25;102624.72;;;-1.46;86.99
79309;BME280;68767;53.078;7.386;2023-04-05T03:55:51;102631.22;;;-1.42;87.10
79309;BME280;68767;53.078;7.386;2023-04-05T03:58:20;102630.81;;;-1.46;87.45
79309;BME280;68767;53.078;7.386;2023-04-05T04:00:47;102631.00;;;-1.47;87.07
79309;BME280;68767;53.078;7.386;2023-04-05T04:03:14;102629.94;;;-1.53;86.70
79309;BME280;68767;53.078;7.386;2023-04-05T04:05:41;102633.13;;;-1.57;86.85
79309;BME280;68767;53.078;7.386;2023-04-05T04:08:08;102627.44;;;-1.61;86.47
79309;BME280;68767;53.078;7.386;2023-04-05T04:10:35;102623.59;;;-1.65;86.89
79309;BME280;68767;53.078;7.386;2023-04-05T04:13:02;102632.47;;;-1.66;87.45
79309;BME280;68767;53.078;7.386;2023-04-05T04:15:28;102621.50;;;-1.70;87.45
79309;BME280;68767;53.078;7.386;2023-04-05T04:17:55;102622.53;;;-1.71;88.17
79309;BME280;68767;53.078;7.386;2023-04-05T04:20:22;102614.88;;;-1.65;88.00
79309;BME280;68767;53.078;7.386;2023-04-05T04:22:49;102620.56;;;-1.62;87.20
79309;BME280;68767;53.078;7.386;2023-04-05T04:25:19;102624.63;;;-1.59;87.14
79309;BME280;68767;53.078;7.386;2023-04-05T04:27:47;102620.34;;;-1.60;87.34
79309;BME280;68767;53.078;7.386;2023-04-05T04:30:15;102611.91;;;-1.56;87.52
79309;BME280;68767;53.078;7.386;2023-04-05T04:32:42;102612.06;;;-1.57;87.63
79309;BME280;68767;53.078;7.386;2023-04-05T04:35:25;102615.53;;;-1.57;87.81
79309;BME280;68767;53.078;7.386;2023-04-05T04:40:28;102609.81;;;-1.60;88.58
79309;BME280;68767;53.078;7.386;2023-04-05T04:42:57;102612.91;;;-1.57;87.80
79309;BME280;68767;53.078;7.386;2023-04-05T04:45:25;102613.88;;;-1.58;87.48
79309;BME280;68767;53.078;7.386;2023-04-05T04:47:52;102607.44;;;-1.55;86.86
79309;BME280;68767;53.078;7.386;2023-04-05T04:50:21;102608.00;;;-1.60;87.96
79309;BME280;68767;53.078;7.386;2023-04-05T04:52:48;102607.19;;;-1.60;87.51
79309;BME280;68767;53.078;7.386;2023-04-05T04:55:15;102609.22;;;-1.62;87.78
79309;BME280;68767;53.078;7.386;2023-04-05T04:57:42;102610.97;;;-1.70;87.55
79309;BME280;68767;53.078;7.386;2023-04-05T05:00:09;102619.06;;;-1.71;87.67
79309;BME280;68767;53.078;7.386;2023-04-05T05:02:39;102616.09;;;-1.61;87.93
79309;BME280;68767;53.078;7.386;2023-04-05T05:05:07;102621.94;;;-1.66;86.97
79309;BME280;68767;53.078;7.386;2023-04-05T05:07:35;102621.56;;;-1.63;87.35
79309;BME280;68767;53.078;7.386;2023-04-05T05:10:02;102619.75;;;-1.62;87.56
79309;BME280;68767;53.078;7.386;2023-04-05T05:12:29;102621.97;;;-1.59;87.06
79309;BME280;68767;53.078;7.386;2023-04-05T05:14:57;102619.75;;;-1.62;87.32
79309;BME280;68767;53.078;7.386;2023-04-05T05:17:23;102609.81;;;-1.60;87.09
79309;BME280;68767;53.078;7.386;2023-04-05T05:19:51;102620.63;;;-1.55;87.06
79309;BME280;68767;53.078;7.386;2023-04-05T05:22:21;102616.97;;;-1.54;86.50
79309;BME280;68767;53.078;7.386;2023-04-05T05:24:47;102616.78;;;-1.53;86.30
79309;BME280;68767;53.078;7.386;2023-04-05T05:27:14;102623.09;;;-1.47;86.45
79309;BME280;68767;53.078;7.386;2023-04-05T05:29:41;102614.75;;;-1.51;86.71
79309;BME280;68767;53.078;7.386;2023-04-05T05:32:08;102621.03;;;-1.52;86.45
79309;BME280;68767;53.078;7.386;2023-04-05T05:34:34;102618.66;;;-1.47;86.44
79309;BME280;68767;53.078;7.386;2023-04-05T05:37:02;102617.03;;;-1.41;87.16
79309;BME280;68767;53.078;7.386;2023-04-05T05:39:28;102610.00;;;-1.34;86.56
79309;BME280;68767;53.078;7.386;2023-04-05T05:41:55;102616.88;;;-1.33;86.23
79309;BME280;68767;53.078;7.386;2023-04-05T05:44:22;102617.53;;;-1.31;86.66
79309;BME280;68767;53.078;7.386;2023-04-05T05:46:49;102614.09;;;-1.25;86.58
79309;BME280;68767;53.078;7.386;2023-04-05T05:49:16;102614.53;;;-1.21;85.37
79309;BME280;68767;53.078;7.386;2023-04-05T05:51:42;102622.28;;;-1.13;85.19
79309;BME280;68767;53.078;7.386;2023-04-05T05:54:09;102618.03;;;-1.14;85.61
79309;BME280;68767;53.078;7.386;2023-04-05T05:56:36;102617.06;;;-1.06;86.03
79309;BME280;68767;53.078;7.386;2023-04-05T05:59:03;102619.53;;;-0.98;83.67
79309;BME280;68767;53.078;7.386;2023-04-05T06:01:30;102628.47;;;-0.99;84.72
79309;BME280;68767;53.078;7.386;2023-04-05T06:03:59;102621.38;;;-0.92;83.99
79309;BME280;68767;53.078;7.386;2023-04-05T06:06:26;102622.19;;;-0.92;83.28
79309;BME280;68767;53.078;7.386;2023-04-05T06:08:55;102619.66;;;-0.72;82.26
79309;BME280;68767;53.078;7.386;2023-04-05T06:11:22;102618.84;;;-0.72;82.10
79309;BME280;68767;53.078;7.386;2023-04-05T06:13:49;102612.38;;;-0.63;82.29
79309;BME280;68767;53.078;7.386;2023-04-05T06:16:20;102618.06;;;-0.60;82.19
79309;BME280;68767;53.078;7.386;2023-04-05T06:18:48;102619.69;;;-0.52;81.99
79309;BME280;68767;53.078;7.386;2023-04-05T06:21:14;102615.88;;;-0.43;81.33
79309;BME280;68767;53.078;7.386;2023-04-05T06:23:41;102619.75;;;-0.39;80.52
79309;BME280;68767;53.078;7.386;2023-04-05T06:26:15;102621.59;;;-0.26;80.67
79309;BME280;68767;53.078;7.386;2023-04-05T06:28:42;102613.91;;;-0.08;78.47
79309;BME280;68767;53.078;7.386;2023-04-05T06:31:08;102617.16;;;0.08;78.00
79309;BME280;68767;53.078;7.386;2023-04-05T06:33:36;102614.94;;;0.18;78.05
79309;BME280;68767;53.078;7.386;2023-04-05T06:36:03;102619.00;;;0.14;77.96
79309;BME280;68767;53.078;7.386;2023-04-05T06:38:30;102616.38;;;0.20;76.88
79309;BME280;68767;53.078;7.386;2023-04-05T06:40:57;102625.09;;;0.34;76.10
79309;BME280;68767;53.078;7.386;2023-04-05T06:43:23;102619.63;;;0.42;76.19
79309;BME280;68767;53.078;7.386;2023-04-05T06:45:50;102617.78;;;0.43;75.62
79309;BME280;68767;53.078;7.386;2023-04-05T06:48:17;102622.81;;;0.64;73.99
79309;BME280;68767;53.078;7.386;2023-04-05T06:50:44;102612.63;;;0.74;73.36
79309;BME280;68767;53.078;7.386;2023-04-05T06:53:10;102623.16;;;0.94;71.42
79309;BME280;68767;53.078;7.386;2023-04-05T06:55:39;102620.06;;;1.10;70.55
79309;BME280;68767;53.078;7.386;2023-04-05T06:58:10;102620.88;;;1.11;71.60
79309;BME280;68767;53.078;7.386;2023-04-05T07:00:37;102614.09;;;1.22;71.75
79309;BME280;68767;53.078;7.386;2023-04-05T07:03:04;102615.91;;;1.28;70.03
79309;BME280;68767;53.078;7.386;2023-04-05T07:05:31;102612.25;;;1.29;71.11
79309;BME280;68767;53.078;7.386;2023-04-05T07:07:58;102605.06;;;1.43;71.29
79309;BME280;68767;53.078;7.386;2023-04-05T07:10:25;102606.00;;;1.55;70.15
79309;BME280;68767;53.078;7.386;2023-04-05T07:12:52;102619.00;;;1.63;69.44
79309;BME280;68767;53.078;7.386;2023-04-05T07:15:18;102608.97;;;1.65;69.67
79309;BME280;68767;53.078;7.386;2023-04-05T07:17:45;102614.25;;;1.72;70.41
79309;BME280;68767;53.078;7.386;2023-04-05T07:20:12;102611.66;;;1.90;68.78
79309;BME280;68767;53.078;7.386;2023-04-05T07:22:39;102610.19;;;2.01;68.18
79309;BME280;68767;53.078;7.386;2023-04-05T07:25:06;102609.13;;;2.08;68.21
79309;BME280;68767;53.078;7.386;2023-04-05T07:27:35;102607.91;;;2.29;66.93
79309;BME280;68767;53.078;7.386;2023-04-05T07:30:02;102602.91;;;2.39;67.38
79309;BME280;68767;53.078;7.386;2023-04-05T07:32:28;102599.78;;;2.49;66.93
79309;BME280;68767;53.078;7.386;2023-04-05T07:34:55;102611.13;;;2.56;67.29
79309;BME280;68767;53.078;7.386;2023-04-05T07:37:22;102604.53;;;2.84;64.47
79309;BME280;68767;53.078;7.386;2023-04-05T07:39:48;102610.47;;;2.97;64.42
79309;BME280;68767;53.078;7.386;2023-04-05T07:42:15;102605.31;;;3.02;64.80
79309;BME280;68767;53.078;7.386;2023-04-05T07:44:43;102610.47;;;3.16;64.54
79309;BME280;68767;53.078;7.386;2023-04-05T07:47:09;102603.75;;;3.31;62.89
79309;BME280;68767;53.078;7.386;2023-04-05T07:49:36;102599.09;;;3.57;64.20
79309;BME280;68767;53.078;7.386;2023-04-05T07:52:03;102602.97;;;3.73;62.45
79309;BME280;68767;53.078;7.386;2023-04-05T07:54:31;102599.06;;;3.87;62.05
79309;BME280;68767;53.078;7.386;2023-04-05T07:57:00;102600.56;;;3.94;61.51
79309;BME280;68767;53.078;7.386;2023-04-05T07:59:28;102598.53;;;4.08;59.81
79309;BME280;68767;53.078;7.386;2023-04-05T08:01:54;102608.94;;;4.21;60.40
79309;BME280;68767;53.078;7.386;2023-04-05T08:04:27;102603.97;;;4.25;59.65
79309;BME280;68767;53.078;7.386;2023-04-05T08:06:54;102602.47;;;4.41;57.70
79309;BME280;68767;53.078;7.386;2023-04-05T08:09:20;102599.00;;;4.52;57.38
79309;BME280;68767;53.078;7.386;2023-04-05T08:11:47;102596.34;;;4.64;58.49
79309;BME280;68767;53.078;7.386;2023-04-05T08:14:14;102588.56;;;4.74;59.03
79309;BME280;68767;53.078;7.386;2023-04-05T08:16:42;102576.81;;;4.98;57.06
79309;BME280;68767;53.078;7.386;2023-04-05T08:19:09;102591.25;;;5.02;54.44
79309;BME280;68767;53.078;7.386;2023-04-05T08:21:36;102593.19;;;5.19;55.56
79309;BME280;68767;53.078;7.386;2023-04-05T08:24:02;102601.78;;;5.38;54.41
79309;BME280;68767;53.078;7.386;2023-04-05T08:26:29;102589.94;;;5.45;52.97
79309;BME280;68767;53.078;7.386;2023-04-05T08:28:56;102585.38;;;5.57;52.36
79309;BME280;68767;53.078;7.386;2023-04-05T08:31:23;102590.34;;;5.82;54.09
79309;BME280;68767;53.078;7.386;2023-04-05T08:33:49;102581.16;;;6.24;51.51
79309;BME280;68767;53.078;7.386;2023-04-05T08:36:16;102583.09;;;6.11;50.83
79309;BME280;68767;53.078;7.386;2023-04-05T08:38:43;102580.59;;;6.22;51.91
79309;BME280;68767;53.078;7.386;2023-04-05T08:41:22;102584.59;;;6.41;49.03
79309;BME280;68767;53.078;7.386;2023-04-05T08:44:03;102582.88;;;6.52;50.23
79309;BME280;68767;53.078;7.386;2023-04-05T08:46:34;102569.34;;;6.58;50.13
79309;BME280;68767;53.078;7.386;2023-04-05T08:49:05;102573.91;;;6.80;47.11
79309;BME280;68767;53.078;7.386;2023-04-05T08:51:37;102560.41;;;6.69;49.15
79309;BME280;68767;53.078;7.386;2023-04-05T08:54:07;102566.13;;;6.78;48.25
79309;BME280;68767;53.078;7.386;2023-04-05T08:56:34;102566.88;;;6.95;45.08
79309;BME280;68767;53.078;7.386;2023-04-05T08:59:06;102571.16;;;6.96;44.49
79309;BME280;68767;53.078;7.386;2023-04-05T09:01:37;102577.09;;;7.25;45.06
79309;BME280;68767;53.078;7.386;2023-04-05T09:04:06;102564.69;;;6.92;43.50
79309;BME280;68767;53.078;7.386;2023-04-05T09:06:34;102572.16;;;6.90;42.84
79309;BME280;68767;53.078;7.386;2023-04-05T09:09:05;102572.50;;;7.21;41.96
79309;BME280;68767;53.078;7.386;2023-04-05T09:11:32;102567.41;;;7.46;42.65
79309;BME280;68767;53.078;7.386;2023-04-05T09:14:02;102566.84;;;7.44;41.03
79309;BME280;68767;53.078;7.386;2023-04-05T09:16:37;102572.00;;;7.24;41.94
79309;BME280;68767;53.078;7.386;2023-04-05T09:19:06;102568.94;;;7.37;42.67
79309;BME280;68767;53.078;7.386;2023-04-05T09:21:58;102563.78;;;7.57;40.02
79309;BME280;68767;53.078;7.386;2023-04-05T09:24:45;102571.13;;;8.04;41.39
79309;BME280;68767;53.078;7.386;2023-04-05T09:27:14;102573.16;;;7.92;38.70
79309;BME280;68767;53.078;7.386;2023-04-05T09:29:45;102568.34;;;7.94;38.36
79309;BME280;68767;53.078;7.386;2023-04-05T09:32:14;102561.47;;;8.03;40.61
79309;BME280;68767;53.078;7.386;2023-04-05T09:34:42;102564.88;;;8.31;39.37
79309;BME280;68767;53.078;7.386;2023-04-05T09:37:16;102565.88;;;8.25;38.95
79309;BME280;68767;53.078;7.386;2023-04-05T09:39:43;102561.06;;;8.22;35.91
79309;BME280;68767;53.078;7.386;2023-04-05T09:42:15;102563.22;;;8.25;37.97
79309;BME280;68767;53.078;7.386;2023-04-05T09:44:58;102564.81;;;8.21;38.67
79309;BME280;68767;53.078;7.386;2023-04-05T09:47:32;102559.50;;;8.31;39.35
79309;BME280;68767;53.078;7.386;2023-04-05T09:52:42;102563.06;;;8.41;37.43
79309;BME280;68767;53.078;7.386;2023-04-05T09:55:10;102558.69;;;8.72;37.07
79309;BME280;68767;53.078;7.386;2023-04-05T09:57:40;102558.47;;;8.89;36.36
79309;BME280;68767;53.078;7.386;2023-04-05T10:00:17;102557.41;;;8.90;37.58
79309;BME280;68767;53.078;7.386;2023-04-05T10:02:45;102547.47;;;8.91;37.95
79309;BME280;68767;53.078;7.386;2023-04-05T10:05:17;102548.84;;;8.98;37.14
79309;BME280;68767;53.078;7.386;2023-04-05T10:07:44;102541.66;;;9.14;37.60
79309;BME280;68767;53.078;7.386;2023-04-05T10:10:11;102544.03;;;9.00;37.22
79309;BME280;68767;53.078;7.386;2023-04-05T10:12:39;102533.06;;;9.12;37.06
79309;BME280;68767;53.078;7.386;2023-04-05T10:15:07;102542.47;;;9.20;38.44
79309;BME280;68767;53.078;7.386;2023-04-05T10:17:59;102538.44;;;9.17;36.24
79309;BME280;68767;53.078;7.386;2023-04-05T10:20:29;102537.63;;;9.07;37.60
79309;BME280;68767;53.078;7.386;2023-04-05T10:28:32;102521.72;;;8.85;33.87
79309;BME280;68767;53.078;7.386;2023-04-05T10:31:11;102513.53;;;9.22;32.40
79309;BME280;68767;53.078;7.386;2023-04-05T10:33:46;102520.19;;;9.09;34.30
79309;BME280;68767;53.078;7.386;2023-04-05T10:36:35;102518.06;;;9.21;35.05
79309;BME280;68767;53.078;7.386;2023-04-05T10:39:12;102521.03;;;9.20;35.75
79309;BME280;68767;53.078;7.386;2023-04-05T10:41:53;102508.63;;;8.98;35.14
79309;BME280;68767;53.078;7.386;2023-04-05T10:44:23;102512.06;;;8.84;37.50
79309;BME280;68767;53.078;7.386;2023-04-05T10:46:53;102511.81;;;8.80;37.96
79309;BME280;68767;53.078;7.386;2023-04-05T10:49:28;102505.69;;;8.95;37.25
79309;BME280;68767;53.078;7.386;2023-04-05T10:51:58;102494.47;;;9.18;38.02
79309;BME280;68767;53.078;7.386;2023-04-05T10:54:25;102510.56;;;9.74;37.10
79309;BME280;68767;53.078;7.386;2023-04-05T10:56:52;102496.38;;;9.64;36.50
79309;BME280;68767;53.078;7.386;2023-04-05T10:59:19;102500.38;;;9.71;35.57
79309;BME280;68767;53.078;7.386;2023-04-05T11:01:48;102494.50;;;9.28;35.39
79309;BME280;68767;53.078;7.386;2023-04-05T11:04:15;102494.50;;;9.54;34.55
79309;BME280;68767;53.078;7.386;2023-04-05T11:06:43;102475.94;;;9.83;35.48
79309;BME280;68767;53.078;7.386;2023-04-05T11:09:17;102481.81;;;10.05;34.15
79309;BME280;68767;53.078;7.386;2023-04-05T11:11:48;102478.63;;;9.88;34.79
79309;BME280;68767;53.078;7.386;2023-04-05T11:16:51;102475.72;;;9.39;34.18
79309;BME280;68767;53.078;7.386;2023-04-05T11:22:08;102482.34;;;9.97;35.57
79309;BME280;68767;53.078;7.386;2023-04-05T11:25:04;102478.50;;;10.34;34.27
79309;BME280;68767;53.078;7.386;2023-04-05T11:27:33;102463.56;;;10.67;34.00
79309;BME280;68767;53.078;7.386;2023-04-05T11:30:04;102460.50;;;10.39;33.64
79309;BME280;68767;53.078;7.386;2023-04-05T11:32:42;102459.84;;;9.93;33.91
79309;BME280;68767;53.078;7.386;2023-04-05T11:35:17;102467.84;;;10.03;34.08
79309;BME280;68767;53.078;7.386;2023-04-05T11:40:31;102466.53;;;10.71;36.05
79309;BME280;68767;53.078;7.386;2023-04-05T11:43:00;102467.16;;;11.02;33.56
79309;BME280;68767;53.078;7.386;2023-04-05T11:45:29;102461.34;;;10.84;32.51
79309;BME280;68767;53.078;7.386;2023-04-05T11:48:05;102455.81;;;11.10;34.82
79309;BME280;68767;53.078;7.386;2023-04-05T11:50:33;102463.09;;;11.38;33.76
79309;BME280;68767;53.078;7.386;2023-04-05T11:53:16;102451.41;;;11.53;33.52
79309;BME280;68767;53.078;7.386;2023-04-05T11:55:47;102453.53;;;10.88;31.39
79309;BME280;68767;53.078;7.386;2023-04-05T11:58:18;102450.03;;;10.87;34.65
79309;BME280;68767;53.078;7.386;2023-04-05T12:00:57;102443.06;;;10.86;31.30
79309;BME280;68767;53.078;7.386;2023-04-05T12:03:25;102437.97;;;10.25;33.33
79309;BME280;68767;53.078;7.386;2023-04-05T12:05:56;102433.53;;;10.60;33.37
79309;BME280;68767;53.078;7.386;2023-04-05T12:08:24;102437.38;;;10.88;34.43
79309;BME280;68767;53.078;7.386;2023-04-05T12:11:06;102436.22;;;11.33;35.64
79309;BME280;68767;53.078;7.386;2023-04-05T12:13:33;102431.69;;;10.94;32.11
79309;BME280;68767;53.078;7.386;2023-04-05T12:16:04;102421.47;;;10.96;33.77
79309;BME280;68767;53.078;7.386;2023-04-05T12:18:36;102426.00;;;10.57;32.15
79309;BME280;68767;53.078;7.386;2023-04-05T12:21:05;102424.31;;;10.71;32.32
79309;BME280;68767;53.078;7.386;2023-04-05T12:23:35;102426.25;;;9.96;33.94
79309;BME280;68767;53.078;7.386;2023-04-05T12:26:03;102419.66;;;9.27;35.51
79309;BME280;68767;53.078;7.386;2023-04-05T12:28:57;102416.13;;;9.57;35.63
79309;BME280;68767;53.078;7.386;2023-04-05T12:34:01;102420.19;;;9.04;37.63
79309;BME280;68767;53.078;7.386;2023-04-05T12:36:29;102423.66;;;9.09;34.92
79309;BME280;68767;53.078;7.386;2023-04-05T12:39:00;102412.69;;;9.11;37.10
79309;BME280;68767;53.078;7.386;2023-04-05T12:41:28;102408.56;;;9.84;36.58
79309;BME280;68767;53.078;7.386;2023-04-05T12:43:58;102407.94;;;10.13;34.13
79309;BME280;68767;53.078;7.386;2023-04-05T12:49:14;102403.00;;;10.40;33.08
79309;BME280;68767;53.078;7.386;2023-04-05T12:51:42;102405.94;;;10.44;34.00
79309;BME280;68767;53.078;7.386;2023-04-05T12:54:22;102400.84;;;10.43;32.60
79309;BME280;68767;53.078;7.386;2023-04-05T12:56:49;102391.84;;;10.67;33.33
79309;BME280;68767;53.078;7.386;2023-04-05T12:59:18;102386.09;;;10.79;32.26
79309;BME280;68767;53.078;7.386;2023-04-05T13:01:46;102388.72;;;10.89;33.28
79309;BME280;68767;53.078;7.386;2023-04-05T13:04:12;102382.66;;;10.29;32.10
79309;BME280;68767;53.078;7.386;2023-04-05T13:06:42;102388.16;;;10.92;32.39
79309;BME280;68767;53.078;7.386;2023-04-05T13:09:09;102384.47;;;10.39;34.00
79309;BME280;68767;53.078;7.386;2023-04-05T13:11:36;102379.13;;;10.78;34.51
79309;BME280;68767;53.078;7.386;2023-04-05T13:14:02;102380.41;;;11.20;33.49
79309;BME280;68767;53.078;7.386;2023-04-05T13:16:29;102373.31;;;11.82;34.17
79309;BME280;68767;53.078;7.386;2023-04-05T13:18:56;102367.44;;;11.99;30.84
79309;BME280;68767;53.078;7.386;2023-04-05T13:21:23;102368.66;;;11.64;31.79
79309;BME280;68767;53.078;7.386;2023-04-05T13:23:49;102363.16;;;11.74;31.67
79309;BME280;68767;53.078;7.386;2023-04-05T13:26:16;102358.56;;;12.60;31.22
79309;BME280;68767;53.078;7.386;2023-04-05T13:28:43;102350.53;;;12.36;28.44
79309;BME280;68767;53.078;7.386;2023-04-05T13:31:10;102338.69;;;11.70;30.97
79309;BME280;68767;53.078;7.386;2023-04-05T13:33:40;102333.41;;;12.46;28.95
79309;BME280;68767;53.078;7.386;2023-04-05T13:36:07;102339.72;;;13.06;31.73
79309;BME280;68767;53.078;7.386;2023-04-05T13:38:34;102332.72;;;13.52;27.72
79309;BME280;68767;53.078;7.386;2023-04-05T13:41:01;102329.63;;;13.58;27.69
79309;BME280;68767;53.078;7.386;2023-04-05T13:43:27;102322.41;;;13.67;27.46